createdAt,value
2018-10-18T00:01:55.704Z,22.37
2018-10-18T00:04:24.384Z,20.10
2018-10-18T00:06:52.382Z,17.20
2018-10-18T00:09:19.880Z,15.50
2018-10-18T00:11:47.393Z,16.30
2018-10-18T00:14:15.743Z,21.90
2018-10-18T00:16:43.943Z,17.50
2018-10-18T00:19:11.464Z,15.97
2018-10-18T00:21:39.667Z,20.00
2018-10-18T00:24:07.690Z,20.83
2018-10-18T00:26:37.447Z,19.83
2018-10-18T00:29:05.088Z,17.23
2018-10-18T00:31:33.312Z,15.77
2018-10-18T00:34:00.833Z,13.03
2018-10-18T00:36:28.340Z,18.97
2018-10-18T00:38:56.899Z,13.30
2018-10-18T00:41:24.447Z,12.30
2018-10-18T00:43:52.470Z,16.07
2018-10-18T00:46:20.660Z,15.00
2018-10-18T00:48:48.683Z,18.70
2018-10-18T00:51:16.179Z,18.70
2018-10-18T00:53:43.707Z,18.07
2018-10-18T00:56:11.452Z,17.80
2018-10-18T00:58:39.486Z,15.70
2018-10-18T01:01:07.028Z,12.60
2018-10-18T01:03:35.549Z,40.37
2018-10-18T01:06:03.101Z,11.90
2018-10-18T01:08:30.578Z,12.50
2018-10-18T01:10:58.483Z,12.30
2018-10-18T01:13:26.938Z,13.40
2018-10-18T01:15:55.318Z,16.63
2018-10-18T01:18:23.307Z,12.73
2018-10-18T01:20:51.296Z,15.30
2018-10-18T01:23:19.587Z,13.20
2018-10-18T01:25:48.641Z,16.13
2018-10-18T01:28:16.155Z,22.47
2018-10-18T01:30:44.345Z,17.37
2018-10-18T01:33:12.531Z,19.90
2018-10-18T01:35:40.737Z,19.97
2018-10-18T01:38:08.968Z,22.87
2018-10-18T01:40:36.499Z,19.13
2018-10-18T01:43:04.068Z,17.87
2018-10-18T01:45:32.132Z,17.47
2018-10-18T01:48:00.542Z,15.07
2018-10-18T01:50:28.035Z,18.50
2018-10-18T01:52:56.150Z,13.93
2018-10-18T01:55:23.656Z,18.03
2018-10-18T01:57:51.755Z,13.87
2018-10-18T02:00:21.226Z,16.37
2018-10-18T02:02:48.711Z,14.30
2018-10-18T02:05:16.249Z,19.70
2018-10-18T02:07:44.709Z,18.10
2018-10-18T02:10:13.360Z,15.27
2018-10-18T02:12:40.906Z,14.10
2018-10-18T02:15:10.578Z,15.33
2018-10-18T02:17:39.160Z,16.87
2018-10-18T02:20:07.473Z,16.67
2018-10-18T02:22:35.757Z,19.20
2018-10-18T02:25:04.783Z,15.53
2018-10-18T02:27:32.891Z,15.70
2018-10-18T02:30:00.570Z,16.80
2018-10-18T02:32:28.037Z,23.67
2018-10-18T02:34:55.712Z,23.70
2018-10-18T02:37:24.385Z,24.00
2018-10-18T02:39:51.944Z,16.63
2018-10-18T02:42:19.543Z,12.17
2018-10-18T02:44:47.592Z,18.83
2018-10-18T02:47:15.105Z,19.33
2018-10-18T02:49:43.441Z,15.40
2018-10-18T02:52:11.236Z,11.47
2018-10-18T02:54:39.179Z,15.57
2018-10-18T02:57:06.699Z,16.40
2018-10-18T03:01:04.361Z,22.40
2018-10-18T03:03:32.878Z,19.67
2018-10-18T03:06:01.775Z,19.87
2018-10-18T03:08:29.292Z,15.87
2018-10-18T03:10:56.832Z,13.50
2018-10-18T03:13:25.238Z,11.83
2018-10-18T03:15:53.715Z,16.50
2018-10-18T03:18:21.716Z,15.20
2018-10-18T03:20:49.204Z,14.00
2018-10-18T03:23:17.552Z,15.13
2018-10-18T03:25:45.566Z,13.50
2018-10-18T03:28:13.155Z,15.23
2018-10-18T03:30:40.648Z,12.03
2018-10-18T03:33:08.264Z,13.60
2018-10-18T03:35:35.761Z,19.17
2018-10-18T03:38:03.739Z,12.90
2018-10-18T03:40:31.254Z,18.97
2018-10-18T03:42:58.776Z,15.40
2018-10-18T03:45:27.129Z,13.30
2018-10-18T03:47:55.660Z,13.40
2018-10-18T03:50:23.267Z,10.13
2018-10-18T03:52:51.476Z,11.57
2018-10-18T03:55:18.977Z,13.63
2018-10-18T03:57:46.469Z,20.57
2018-10-18T04:00:14.298Z,12.97
2018-10-18T04:02:42.687Z,16.00
2018-10-18T04:05:11.019Z,18.30
2018-10-18T04:07:38.776Z,15.30
2018-10-18T04:10:06.657Z,15.70
2018-10-18T04:12:34.864Z,15.77
2018-10-18T04:15:03.665Z,12.13
2018-10-18T04:17:31.592Z,12.77
2018-10-18T04:19:59.124Z,12.27
2018-10-18T04:22:27.563Z,11.37
2018-10-18T04:24:55.691Z,14.43
2018-10-18T04:27:23.200Z,17.57
2018-10-18T04:29:50.712Z,18.73
2018-10-18T04:32:19.081Z,18.57
2018-10-18T04:34:46.584Z,21.20
2018-10-18T04:37:15.358Z,17.30
2018-10-18T04:39:43.416Z,17.03
2018-10-18T04:42:10.998Z,15.80
2018-10-18T04:44:38.954Z,17.50
2018-10-18T04:47:07.360Z,26.33
2018-10-18T04:49:35.626Z,24.13
2018-10-18T04:52:03.128Z,17.10
2018-10-18T04:54:30.649Z,17.30
2018-10-18T04:56:58.361Z,16.33
2018-10-18T04:59:27.107Z,17.03
2018-10-18T05:01:55.306Z,20.03
2018-10-18T05:04:22.800Z,18.57
2018-10-18T05:06:50.422Z,17.00
2018-10-18T05:09:18.191Z,20.27
2018-10-18T05:11:46.579Z,19.90
2018-10-18T05:14:14.080Z,15.47
2018-10-18T05:16:42.066Z,14.80
2018-10-18T05:19:10.500Z,19.90
2018-10-18T05:21:38.872Z,22.23
2018-10-18T05:24:07.352Z,15.23
2018-10-18T05:26:34.875Z,17.83
2018-10-18T05:29:02.395Z,22.53
2018-10-18T05:31:30.057Z,18.70
2018-10-18T05:33:58.641Z,17.80
2018-10-18T05:36:26.163Z,12.70
2018-10-18T05:38:54.296Z,22.83
2018-10-18T05:41:22.403Z,13.07
2018-10-18T05:43:50.679Z,19.93
2018-10-18T05:46:19.466Z,15.07
2018-10-18T05:48:47.788Z,17.57
2018-10-18T05:51:15.302Z,15.83
2018-10-18T05:53:43.614Z,20.53
2018-10-18T05:56:11.329Z,16.83
2018-10-18T05:58:39.040Z,17.63
2018-10-18T06:01:07.494Z,16.50
2018-10-18T06:03:36.040Z,16.53
2018-10-18T06:06:04.018Z,15.63
2018-10-18T06:08:32.307Z,20.57
2018-10-18T06:11:11.346Z,20.70
2018-10-18T06:13:39.458Z,24.63
2018-10-18T06:16:07.829Z,15.27
2018-10-18T06:18:37.152Z,17.23
2018-10-18T06:21:04.792Z,14.53
2018-10-18T06:23:33.185Z,18.03
2018-10-18T06:26:01.444Z,17.77
2018-10-18T06:28:29.632Z,13.70
2018-10-18T06:30:57.261Z,13.77
2018-10-18T06:33:24.860Z,22.93
2018-10-18T06:35:52.496Z,17.53
2018-10-18T06:38:20.518Z,16.43
2018-10-18T06:40:48.212Z,12.07
2018-10-18T06:43:17.150Z,16.07
2018-10-18T06:45:45.443Z,17.77
2018-10-18T06:48:13.563Z,16.43
2018-10-18T06:50:41.176Z,16.90
2018-10-18T06:53:08.853Z,16.00
2018-10-18T06:55:36.671Z,18.57
2018-10-18T06:58:05.102Z,14.67
2018-10-18T07:00:32.804Z,11.80
2018-10-18T07:03:00.336Z,12.30
2018-10-18T07:05:28.520Z,10.73
2018-10-18T07:07:56.322Z,12.80
2018-10-18T07:10:23.928Z,11.33
2018-10-18T07:12:51.590Z,13.37
2018-10-18T07:15:20.499Z,10.20
2018-10-18T07:17:48.671Z,17.73
2018-10-18T07:20:16.667Z,20.10
2018-10-18T07:22:44.291Z,15.07
2018-10-18T07:25:15.512Z,17.73
2018-10-18T07:27:43.306Z,15.77
2018-10-18T07:30:12.799Z,14.60
2018-10-18T07:32:41.029Z,15.83
2018-10-18T07:35:09.977Z,20.07
2018-10-18T07:37:38.523Z,15.83
2018-10-18T07:40:08.195Z,14.60
2018-10-18T07:42:37.260Z,14.80
2018-10-18T07:45:06.320Z,12.30
2018-10-18T07:47:34.641Z,12.80
2018-10-18T07:50:02.323Z,16.70
2018-10-18T07:52:30.000Z,13.63
2018-10-18T07:54:58.052Z,13.63
2018-10-18T07:57:26.520Z,16.63
2018-10-18T07:59:54.289Z,19.33
2018-10-18T08:02:21.925Z,19.03
2018-10-18T08:04:50.546Z,16.07
2018-10-18T08:07:18.800Z,14.90
2018-10-18T08:09:46.544Z,13.97
2018-10-18T08:12:14.579Z,16.40
2018-10-18T08:14:42.353Z,12.03
2018-10-18T08:17:10.851Z,18.33
2018-10-18T08:19:38.468Z,12.50
2018-10-18T08:22:07.059Z,13.73
2018-10-18T08:24:35.352Z,16.70
2018-10-18T08:27:03.071Z,15.30
2018-10-18T08:29:30.656Z,16.47
2018-10-18T08:31:58.356Z,12.37
2018-10-18T08:34:25.971Z,12.70
2018-10-18T08:36:54.746Z,13.53
2018-10-18T08:39:23.160Z,12.30
2018-10-18T08:41:51.269Z,17.67
2018-10-18T08:44:20.702Z,13.57
2018-10-18T08:46:48.307Z,14.53
2018-10-18T08:49:16.651Z,13.07
2018-10-18T08:51:45.110Z,13.73
2018-10-18T08:54:13.376Z,14.37
2018-10-18T08:56:41.560Z,15.80
2018-10-18T08:59:09.225Z,11.37
2018-10-18T09:01:37.712Z,10.97
2018-10-18T09:04:05.639Z,13.07
2018-10-18T09:06:33.880Z,12.30
2018-10-18T09:09:01.604Z,12.63
2018-10-18T09:11:30.313Z,11.57
2018-10-18T09:13:58.435Z,8.63
2018-10-18T09:16:27.658Z,10.03
2018-10-18T09:18:55.279Z,12.57
2018-10-18T09:21:22.978Z,15.67
2018-10-18T09:23:51.410Z,10.70
2018-10-18T09:26:20.112Z,12.27
2018-10-18T09:28:48.042Z,22.10
2018-10-18T09:31:15.658Z,11.00
2018-10-18T09:33:43.794Z,12.87
2018-10-18T09:36:11.650Z,12.73
2018-10-18T09:38:39.840Z,8.70
2018-10-18T09:41:08.077Z,10.90
2018-10-18T09:43:36.534Z,13.83
2018-10-18T09:46:05.441Z,14.50
2018-10-18T09:48:33.554Z,8.97
2018-10-18T09:51:01.888Z,8.73
2018-10-18T09:53:30.300Z,10.43
2018-10-18T09:55:57.945Z,10.47
2018-10-18T09:58:26.019Z,11.10
2018-10-18T10:00:59.279Z,10.80
2018-10-18T10:03:27.183Z,10.13
2018-10-18T10:05:54.816Z,11.50
2018-10-18T10:08:23.643Z,12.00
2018-10-18T10:10:51.816Z,14.73
2018-10-18T10:13:19.527Z,13.40
2018-10-18T10:15:47.947Z,16.07
2018-10-18T10:18:16.170Z,25.53
2018-10-18T10:20:43.811Z,24.30
2018-10-18T10:23:11.538Z,23.50
2018-10-18T10:25:39.770Z,22.03
2018-10-18T10:28:07.395Z,18.17
2018-10-18T10:30:35.021Z,17.73
2018-10-18T10:33:03.121Z,20.37
2018-10-18T10:35:31.060Z,22.43
2018-10-18T10:38:00.259Z,23.03
2018-10-18T10:40:28.575Z,18.53
2018-10-18T10:42:56.768Z,19.93
2018-10-18T10:45:24.738Z,22.03
2018-10-18T10:47:53.027Z,19.77
2018-10-18T10:50:20.765Z,22.90
2018-10-18T10:52:48.422Z,22.17
2018-10-18T10:55:16.152Z,27.27
2018-10-18T10:57:44.468Z,23.43
2018-10-18T11:00:12.222Z,29.67
2018-10-18T11:02:39.801Z,25.37
2018-10-18T11:05:08.480Z,27.47
2018-10-18T11:07:36.181Z,26.90
2018-10-18T11:10:04.218Z,26.67
2018-10-18T11:12:32.025Z,27.27
2018-10-18T11:15:01.250Z,28.93
2018-10-18T11:17:29.608Z,26.63
2018-10-18T11:19:57.256Z,27.60
2018-10-18T11:22:24.872Z,26.33
2018-10-18T11:24:53.306Z,28.33
2018-10-18T11:27:20.829Z,29.70
2018-10-18T11:29:48.435Z,26.90
2018-10-18T11:32:16.518Z,28.57
2018-10-18T11:34:44.141Z,28.07
2018-10-18T11:37:12.469Z,24.60
2018-10-18T11:39:44.000Z,27.00
2018-10-18T11:42:11.679Z,31.30
2018-10-18T11:44:40.705Z,29.07
2018-10-18T11:47:10.766Z,32.40
2018-10-18T11:49:39.499Z,25.60
2018-10-18T11:52:07.273Z,24.70
2018-10-18T11:54:35.671Z,26.10
2018-10-18T11:57:03.568Z,27.00
2018-10-18T11:59:31.216Z,24.00
2018-10-18T12:01:59.103Z,29.33
2018-10-18T12:04:28.047Z,27.20
2018-10-18T12:06:55.705Z,24.97
2018-10-18T12:09:23.307Z,26.17
2018-10-18T12:11:50.972Z,22.13
2018-10-18T12:14:19.191Z,24.40
2018-10-18T12:16:47.293Z,23.17
2018-10-18T12:19:15.044Z,24.80
2018-10-18T12:21:42.647Z,26.63
2018-10-18T12:24:12.042Z,25.97
2018-10-18T12:26:39.766Z,21.53
2018-10-18T12:29:07.414Z,26.70
2018-10-18T12:31:35.659Z,32.43
2018-10-18T12:34:03.658Z,28.07
2018-10-18T12:36:31.909Z,28.10
2018-10-18T12:38:59.947Z,28.00
2018-10-18T12:41:27.750Z,23.53
2018-10-18T12:43:56.592Z,24.60
2018-10-18T12:46:25.863Z,31.83
2018-10-18T12:48:54.083Z,28.67
2018-10-18T12:51:23.329Z,26.27
2018-10-18T12:53:50.952Z,28.97
2018-10-18T12:56:18.779Z,31.50
2018-10-18T12:58:46.537Z,22.97
2018-10-18T13:01:14.731Z,31.63
2018-10-18T13:03:42.901Z,24.73
2018-10-18T13:06:10.609Z,32.03
2018-10-18T13:08:39.162Z,25.90
2018-10-18T13:11:07.009Z,25.17
2018-10-18T13:13:34.672Z,24.30
2018-10-18T13:16:02.816Z,26.20
2018-10-18T13:18:31.035Z,27.93
2018-10-18T13:20:58.751Z,22.47
2018-10-18T13:23:26.420Z,24.87
2018-10-18T13:25:54.525Z,28.00
2018-10-18T13:28:22.786Z,22.37
2018-10-18T13:30:50.441Z,28.83
2018-10-18T13:33:18.080Z,26.70
2018-10-18T13:35:46.872Z,34.23
2018-10-18T13:38:15.026Z,30.60
2018-10-18T13:40:43.424Z,31.20
2018-10-18T13:43:11.816Z,26.73
2018-10-18T13:45:40.089Z,23.80
2018-10-18T13:48:08.255Z,24.67
2018-10-18T13:50:36.446Z,33.90
2018-10-18T13:53:04.141Z,25.97
2018-10-18T13:55:31.848Z,23.00
2018-10-18T13:58:00.170Z,27.10
2018-10-18T14:00:30.008Z,26.17
2018-10-18T14:02:57.717Z,23.73
2018-10-18T14:05:26.034Z,25.47
2018-10-18T14:07:54.632Z,34.10
2018-10-18T14:10:22.243Z,28.03
2018-10-18T14:12:50.747Z,28.77
2018-10-18T14:15:18.823Z,27.03
2018-10-18T14:17:47.113Z,27.03
2018-10-18T14:20:14.786Z,29.07
2018-10-18T14:22:42.544Z,25.90
2018-10-18T14:25:10.947Z,32.43
2018-10-18T14:27:38.844Z,30.60
2018-10-18T14:30:08.162Z,29.40
2018-10-18T14:32:37.184Z,26.97
2018-10-18T14:35:05.894Z,35.37
2018-10-18T14:37:34.240Z,31.40
2018-10-18T14:40:02.768Z,32.30
2018-10-18T14:42:30.387Z,27.50
2018-10-18T14:44:58.704Z,27.03
2018-10-18T14:47:26.845Z,31.00
2018-10-18T14:49:55.102Z,30.27
2018-10-18T14:52:22.842Z,23.07
2018-10-18T14:54:50.445Z,30.43
2018-10-18T14:57:19.106Z,29.60
2018-10-18T14:59:47.701Z,28.63
2018-10-18T15:02:15.875Z,28.30
2018-10-18T15:04:43.428Z,31.97
2018-10-18T15:07:11.032Z,26.67
2018-10-18T15:09:38.864Z,26.40
2018-10-18T15:12:07.203Z,24.10
2018-10-18T15:14:36.470Z,27.23
2018-10-18T15:17:04.620Z,26.73
2018-10-18T15:19:32.701Z,26.00
2018-10-18T15:22:00.955Z,30.00
2018-10-18T15:24:29.131Z,26.90
2018-10-18T15:26:57.402Z,32.63
2018-10-18T15:29:25.844Z,28.47
2018-10-18T15:31:54.468Z,36.30
2018-10-18T15:34:22.756Z,37.63
2018-10-18T15:36:51.090Z,33.93
2018-10-18T15:39:18.804Z,39.17
2018-10-18T15:41:47.032Z,33.10
2018-10-18T15:44:15.418Z,34.60
2018-10-18T15:46:42.946Z,35.13
2018-10-18T15:49:11.078Z,40.00
2018-10-18T15:51:38.736Z,36.53
2018-10-18T15:54:07.107Z,44.70
2018-10-18T15:56:35.851Z,44.97
2018-10-18T15:59:03.804Z,41.27
2018-10-18T16:01:32.153Z,32.80
2018-10-18T16:03:59.873Z,32.13
2018-10-18T16:06:27.850Z,32.63
2018-10-18T16:08:55.411Z,23.20
2018-10-18T16:11:23.069Z,24.50
2018-10-18T16:13:50.967Z,18.20
2018-10-18T16:16:20.207Z,18.10
2018-10-18T16:18:48.520Z,21.60
2018-10-18T16:21:17.375Z,18.23
2018-10-18T16:23:45.864Z,25.70
2018-10-18T16:26:14.052Z,19.03
2018-10-18T16:28:41.556Z,18.70
2018-10-18T16:31:09.181Z,31.50
2018-10-18T16:33:37.479Z,39.83
2018-10-18T16:36:05.400Z,64.10
2018-10-18T16:38:33.422Z,72.63
2018-10-18T16:41:02.235Z,45.53
2018-10-18T16:43:30.068Z,26.90
2018-10-18T16:45:58.286Z,21.93
2018-10-18T16:48:27.738Z,16.27
2018-10-18T16:50:56.143Z,21.37
2018-10-18T16:53:24.455Z,16.80
2018-10-18T16:55:52.743Z,58.77
2018-10-18T16:58:20.816Z,61.73
2018-10-18T17:00:49.071Z,43.37
2018-10-18T17:03:17.542Z,31.20
2018-10-18T17:05:46.030Z,30.87
2018-10-18T17:08:13.717Z,32.33
2018-10-18T17:10:41.293Z,28.07
2018-10-18T17:13:09.228Z,27.97
2018-10-18T17:15:37.459Z,25.73
2018-10-18T17:18:05.847Z,27.50
2018-10-18T17:20:34.073Z,24.97
2018-10-18T17:23:01.827Z,18.37
2018-10-18T17:25:30.125Z,26.73
2018-10-18T17:27:58.051Z,20.50
2018-10-18T17:30:26.482Z,18.63
2018-10-18T17:32:55.483Z,20.23
2018-10-18T17:35:23.820Z,17.80
2018-10-18T17:37:52.482Z,19.97
2018-10-18T17:40:21.391Z,21.90
2018-10-18T17:42:50.314Z,21.13
2018-10-18T17:45:18.353Z,23.73
2018-10-18T17:47:46.850Z,20.17
2018-10-18T17:50:14.532Z,17.03
2018-10-18T17:52:42.189Z,15.47
2018-10-18T17:55:10.119Z,18.40
2018-10-18T17:57:38.236Z,22.47
2018-10-18T18:00:09.353Z,19.90
2018-10-18T18:02:38.445Z,30.83
2018-10-18T18:05:06.825Z,31.73
2018-10-18T18:07:35.523Z,40.43
2018-10-18T18:10:03.978Z,30.57
2018-10-18T18:12:32.014Z,28.20
2018-10-18T18:15:00.487Z,29.63
2018-10-18T18:17:29.626Z,27.23
2018-10-18T18:19:57.440Z,30.87
2018-10-18T18:22:25.726Z,29.23
2018-10-18T18:24:54.628Z,26.47
2018-10-18T18:27:22.739Z,26.20
2018-10-18T18:29:51.204Z,19.23
2018-10-18T18:32:20.246Z,24.40
2018-10-18T18:34:48.026Z,29.87
2018-10-18T18:37:16.607Z,21.87
2018-10-18T18:39:44.473Z,27.50
2018-10-18T18:42:14.153Z,33.77
2018-10-18T18:44:42.274Z,20.73
2018-10-18T18:47:10.855Z,23.30
2018-10-18T18:49:39.472Z,25.63
2018-10-18T18:52:07.217Z,23.23
2018-10-18T18:54:35.177Z,23.67
2018-10-18T18:57:04.129Z,26.47
2018-10-18T18:59:31.852Z,32.20
2018-10-18T19:02:00.625Z,29.33
2018-10-18T19:04:29.985Z,28.00
2018-10-18T19:06:57.790Z,27.10
2018-10-18T19:09:25.627Z,29.30
2018-10-18T19:11:53.699Z,35.33
2018-10-18T19:14:22.348Z,29.70
2018-10-18T19:16:51.038Z,31.33
2018-10-18T19:19:20.297Z,31.43
2018-10-18T19:21:49.034Z,21.53
2018-10-18T19:24:18.146Z,26.10
2018-10-18T19:26:46.249Z,17.20
2018-10-18T19:29:13.790Z,29.07
2018-10-18T19:31:43.039Z,29.47
2018-10-18T19:34:12.008Z,20.90
2018-10-18T19:36:39.589Z,30.20
2018-10-18T19:39:08.172Z,27.00
2018-10-18T19:41:36.329Z,26.33
2018-10-18T19:44:05.311Z,36.03
2018-10-18T19:46:34.732Z,28.73
2018-10-18T19:49:03.339Z,23.47
2018-10-18T19:51:31.570Z,23.90
2018-10-18T19:53:59.551Z,29.70
2018-10-18T19:56:27.717Z,24.77
2018-10-18T19:58:56.370Z,24.43
2018-10-18T20:01:25.330Z,23.53
2018-10-18T20:03:53.334Z,24.37
2018-10-18T20:06:21.481Z,20.63
2018-10-18T20:08:50.303Z,28.60
2018-10-18T20:11:19.655Z,23.40
2018-10-18T20:13:47.701Z,22.13
2018-10-18T20:16:16.569Z,30.57
2018-10-18T20:18:46.493Z,33.67
2018-10-18T20:21:15.784Z,35.27
2018-10-18T20:23:45.093Z,21.90
2018-10-18T20:26:13.578Z,22.50
2018-10-18T20:28:41.994Z,25.17
2018-10-18T20:31:11.160Z,29.83
2018-10-18T20:33:41.536Z,27.97
2018-10-18T20:36:09.896Z,32.20
2018-10-18T20:38:38.214Z,25.40
2018-10-18T20:41:07.085Z,19.27
2018-10-18T20:43:35.897Z,18.53
2018-10-18T20:46:05.181Z,23.00
2018-10-18T20:48:34.280Z,29.17
2018-10-18T20:51:03.631Z,29.47
2018-10-18T20:53:31.723Z,26.80
2018-10-18T20:55:59.615Z,27.90
2018-10-18T20:58:28.351Z,31.37
2018-10-18T21:00:56.336Z,26.57
2018-10-18T21:03:25.387Z,28.00
2018-10-18T21:05:54.309Z,24.20
2018-10-18T21:08:23.036Z,21.07
2018-10-18T21:10:51.188Z,24.67
2018-10-18T21:13:18.708Z,28.50
2018-10-18T21:15:47.248Z,30.53
2018-10-18T21:18:15.895Z,22.50
2018-10-18T21:20:43.924Z,19.27
2018-10-18T21:23:11.614Z,21.80
2018-10-18T21:25:39.712Z,29.37
2018-10-18T21:28:07.216Z,20.30
2018-10-18T21:30:35.411Z,20.90
2018-10-18T21:33:02.973Z,27.37
2018-10-18T21:35:30.464Z,31.50
2018-10-18T21:37:59.426Z,28.73
2018-10-18T21:40:27.810Z,29.67
2018-10-18T21:42:56.405Z,28.80
2018-10-18T21:45:24.489Z,29.37
2018-10-18T21:47:52.809Z,27.80
2018-10-18T21:50:20.752Z,26.30
2018-10-18T21:52:48.913Z,25.37
2018-10-18T21:55:16.403Z,19.30
2018-10-18T21:57:43.920Z,17.27
2018-10-18T22:00:13.761Z,17.80
2018-10-18T22:02:43.532Z,23.37
2018-10-18T22:05:11.673Z,27.07
2018-10-18T22:07:39.856Z,26.80
2018-10-18T22:10:07.419Z,24.70
2018-10-18T22:12:36.107Z,21.00
2018-10-18T22:15:05.854Z,19.70
2018-10-18T22:17:33.963Z,18.60
2018-10-18T22:20:02.251Z,26.30
2018-10-18T22:22:29.832Z,19.03
2018-10-18T22:24:57.992Z,23.40
2018-10-18T22:27:26.012Z,21.90
2018-10-18T22:29:53.939Z,20.00
2018-10-18T22:32:21.451Z,19.53
2018-10-18T22:34:48.952Z,24.53
2018-10-18T22:37:17.101Z,18.30
2018-10-18T22:39:45.328Z,18.40
2018-10-18T22:42:12.880Z,17.87
2018-10-18T22:44:41.477Z,19.97
2018-10-18T22:47:09.698Z,23.83
2018-10-18T22:49:38.091Z,27.30
2018-10-18T22:52:05.652Z,23.37
2018-10-18T22:54:33.275Z,26.30
2018-10-18T22:57:01.182Z,23.07
2018-10-18T22:59:28.729Z,20.60
2018-10-18T23:01:57.714Z,25.80
2018-10-18T23:04:26.816Z,33.10
2018-10-18T23:06:54.352Z,32.27
2018-10-18T23:09:21.971Z,31.60
2018-10-18T23:11:49.699Z,31.13
2018-10-18T23:14:17.231Z,24.70
2018-10-18T23:16:45.832Z,22.33
2018-10-18T23:19:14.337Z,19.83
2018-10-18T23:21:41.831Z,32.13
2018-10-18T23:24:10.188Z,22.03
2018-10-18T23:26:38.970Z,19.33
2018-10-18T23:29:07.926Z,28.00
2018-10-18T23:31:35.895Z,28.80
2018-10-18T23:34:04.819Z,24.20
2018-10-18T23:36:32.323Z,18.77
2018-10-18T23:39:02.105Z,16.83
2018-10-18T23:41:29.633Z,17.03
2018-10-18T23:43:58.111Z,18.67
2018-10-18T23:46:26.280Z,17.50
2018-10-18T23:48:54.845Z,20.20
2018-10-18T23:51:22.348Z,20.70
2018-10-18T23:53:49.855Z,22.80
2018-10-18T23:56:17.835Z,25.43
2018-10-18T23:58:45.509Z,16.03
